Time;durP1;ratioP1;P1;durP2;ratioP2;P2;SDS_P1;SDS_P2;PMS_P1;PMS_P2;Temp;Humidity;BMP_temperature;BMP_pressure;BME280_temperature;BME280_humidity;BME280_pressure;Samples;Min_cycle;Max_cycle;Signal;HPM_P1;HPM_P2
2021/10/09 00:00:40;;;;;;;;;3.00;2.00;;;;;;;;2773114;51;11434;-74
2021/10/09 00:03:05;;;;;;;;;4.33;1.67;;;;;;;;2778001;51;8771;-74
2021/10/09 00:05:31;;;;;;;;;0.33;0.33;;;;;;;;2773618;51;8786;-75
2021/10/09 00:07:57;;;;;;;;;2.33;2.33;;;;;;;;2773131;51;8787;-75
2021/10/09 00:10:25;;;;;;;;;1.50;0.00;;;;;;;;2773068;51;11586;-74
2021/10/09 00:12:51;;;;;;;;;1.00;1.00;;;;;;;;2773601;51;8786;-74
2021/10/09 00:15:18;;;;;;;;;0.50;0.50;;;;;;;;2773158;51;8802;-74
2021/10/09 00:17:44;;;;;;;;;2.00;1.00;;;;;;;;2777329;51;8786;-74
2021/10/09 00:20:10;;;;;;;;;1.00;1.00;;;;;;;;2773335;51;8775;-73
2021/10/09 00:22:35;;;;;;;;;2.00;1.50;;;;;;;;2773067;51;11439;-73
2021/10/09 00:25:02;;;;;;;;;1.00;1.00;;;;;;;;2773082;51;8770;-74
2021/10/09 00:27:28;;;;;;;;;1.75;1.75;;;;;;;;2773234;51;8759;-74
2021/10/09 00:29:54;;;;;;;;;2.00;1.00;;;;;;;;2773345;51;8783;-73
2021/10/09 00:32:20;;;;;;;;;4.33;2.33;;;;;;;;2773150;51;10150;-74
2021/10/09 00:34:46;;;;;;;;;3.00;1.67;;;;;;;;2773256;51;11430;-73
2021/10/09 00:37:11;;;;;;;;;1.33;1.33;;;;;;;;2773405;51;8896;-73
2021/10/09 00:39:37;;;;;;;;;1.00;1.00;;;;;;;;2772957;51;11379;-75
2021/10/09 00:42:05;;;;;;;;;1.33;1.33;;;;;;;;2773099;51;10156;-74
2021/10/09 00:44:31;;;;;;;;;2.50;1.00;;;;;;;;2777851;51;11425;-73
2021/10/09 00:47:00;;;;;;;;;0.00;0.00;;;;;;;;2773113;51;8778;-73
2021/10/09 00:49:26;;;;;;;;;1.00;1.00;;;;;;;;2773169;51;8775;-74
2021/10/09 00:51:52;;;;;;;;;2.75;2.00;;;;;;;;2772972;51;8773;-73
2021/10/09 00:54:19;;;;;;;;;1.50;1.00;;;;;;;;2773298;51;8783;-73
2021/10/09 00:56:46;;;;;;;;;2.00;2.00;;;;;;;;2773320;51;8775;-74
2021/10/09 00:59:12;;;;;;;;;2.50;0.50;;;;;;;;2773049;51;9459;-73
2021/10/09 01:01:40;;;;;;;;;1.75;1.25;;;;;;;;2772908;51;8774;-72
2021/10/09 01:04:07;;;;;;;;;2.75;1.00;;;;;;;;2777365;51;8758;-73
2021/10/09 01:06:32;;;;;;;;;2.00;2.00;;;;;;;;2773225;51;8781;-74
2021/10/09 01:08:59;;;;;;;;;1.00;1.00;;;;;;;;2773250;51;8775;-73
2021/10/09 01:11:25;;;;;;;;;1.50;1.50;;;;;;;;2772854;51;8786;-74
2021/10/09 01:13:51;;;;;;;;;2.00;2.00;;;;;;;;2773259;51;8905;-74
2021/10/09 01:16:17;;;;;;;;;1.00;1.00;;;;;;;;2773141;51;8805;-75
2021/10/09 01:18:46;;;;;;;;;2.75;2.00;;;;;;;;2772776;51;10443;-73
2021/10/09 01:21:12;;;;;;;;;1.50;1.00;;;;;;;;2772919;51;8779;-73
2021/10/09 01:23:37;;;;;;;;;1.33;0.33;;;;;;;;2772839;51;8832;-74
2021/10/09 01:26:06;;;;;;;;;0.67;0.67;;;;;;;;2772855;51;8767;-73
2021/10/09 01:28:32;;;;;;;;;1.50;1.50;;;;;;;;2772702;51;11464;-74
2021/10/09 01:30:59;;;;;;;;;1.25;1.25;;;;;;;;2773910;51;8771;-74
2021/10/09 01:33:25;;;;;;;;;0.33;0.33;;;;;;;;2773740;51;8845;-74
2021/10/09 01:35:52;;;;;;;;;0.67;0.67;;;;;;;;2773639;51;11384;-73
2021/10/09 01:38:19;;;;;;;;;1.00;1.00;;;;;;;;2773966;51;10861;-74
2021/10/09 01:40:45;;;;;;;;;1.00;1.00;;;;;;;;2773726;51;8868;-74
2021/10/09 01:43:12;;;;;;;;;2.00;2.00;;;;;;;;2778337;51;8770;-74
2021/10/09 01:45:40;;;;;;;;;2.75;2.00;;;;;;;;2774206;51;8798;-74
2021/10/09 01:48:06;;;;;;;;;1.25;1.00;;;;;;;;2778899;51;8762;-75
2021/10/09 01:50:32;;;;;;;;;1.33;1.33;;;;;;;;2773465;51;8767;-73
2021/10/09 01:52:58;;;;;;;;;1.50;0.00;;;;;;;;2773589;51;11170;-74
2021/10/09 01:55:24;;;;;;;;;1.00;1.00;;;;;;;;2773832;51;8789;-74
2021/10/09 01:57:50;;;;;;;;;2.00;2.00;;;;;;;;2773842;51;8775;-73
2021/10/09 02:00:16;;;;;;;;;1.50;1.00;;;;;;;;2773828;51;11482;-73
2021/10/09 02:02:42;;;;;;;;;0.75;0.75;;;;;;;;2773852;51;8787;-74
2021/10/09 02:05:08;;;;;;;;;0.00;0.00;;;;;;;;2773590;51;8763;-73
2021/10/09 02:07:35;;;;;;;;;2.00;1.33;;;;;;;;2773900;51;8778;-73
2021/10/09 02:10:01;;;;;;;;;1.75;1.00;;;;;;;;2773339;51;11491;-74
2021/10/09 02:12:29;;;;;;;;;0.00;0.00;;;;;;;;2773736;51;8822;-73
2021/10/09 02:15:03;;;;;;;;;1.00;1.00;;;;;;;;2773652;51;8921;-75
2021/10/09 02:25:45;;;;;;;;;1.00;0.50;;;;;;;;2773827;51;8751;-75
2021/10/09 02:28:12;;;;;;;;;1.75;1.75;;;;;;;;2774191;51;8767;-75
2021/10/09 02:30:38;;;;;;;;;4.00;1.50;;;;;;;;2778333;51;8873;-76
2021/10/09 02:33:05;;;;;;;;;2.00;2.00;;;;;;;;2773614;51;9416;-75
2021/10/09 02:35:31;;;;;;;;;3.50;3.50;;;;;;;;2773460;51;8802;-75
2021/10/09 02:37:56;;;;;;;;;1.25;1.25;;;;;;;;2773394;51;8762;-74
2021/10/09 02:40:22;;;;;;;;;1.00;1.00;;;;;;;;2773324;51;9016;-74
2021/10/09 02:42:48;;;;;;;;;1.00;1.00;;;;;;;;2773723;51;11442;-73
2021/10/09 02:45:14;;;;;;;;;0.00;0.00;;;;;;;;2773780;51;11347;-73
2021/10/09 02:47:40;;;;;;;;;1.00;1.00;;;;;;;;2773873;51;9552;-73
2021/10/09 02:50:10;;;;;;;;;1.00;1.00;;;;;;;;2773450;51;10577;-74
2021/10/09 02:52:36;;;;;;;;;1.75;0.50;;;;;;;;2774159;51;11504;-75
2021/10/09 02:55:02;;;;;;;;;1.25;1.25;;;;;;;;2773451;51;8795;-72
2021/10/09 02:57:29;;;;;;;;;1.25;1.25;;;;;;;;2775869;51;8771;-72
2021/10/09 02:59:54;;;;;;;;;2.50;2.50;;;;;;;;2775774;51;8790;-73
2021/10/09 03:02:20;;;;;;;;;1.50;1.50;;;;;;;;2775751;51;8778;-74
2021/10/09 03:04:46;;;;;;;;;1.00;1.00;;;;;;;;2773621;51;8926;-74
2021/10/09 03:07:12;;;;;;;;;1.75;1.75;;;;;;;;2773508;51;8763;-73
2021/10/09 03:09:38;;;;;;;;;1.00;1.00;;;;;;;;2773967;51;9526;-74
2021/10/09 03:12:04;;;;;;;;;0.00;0.00;;;;;;;;2773366;51;11528;-74
2021/10/09 03:14:30;;;;;;;;;1.75;0.25;;;;;;;;2773629;51;8806;-75
2021/10/09 03:16:56;;;;;;;;;3.00;2.00;;;;;;;;2778142;51;8770;-75
2021/10/09 03:19:22;;;;;;;;;1.00;0.50;;;;;;;;2773585;51;9771;-75
2021/10/09 03:21:48;;;;;;;;;0.67;0.67;;;;;;;;2773888;51;8767;-74
2021/10/09 03:24:14;;;;;;;;;0.33;0.33;;;;;;;;2773399;51;12093;-75
2021/10/09 03:26:40;;;;;;;;;1.75;1.00;;;;;;;;2773528;51;11401;-75
2021/10/09 03:29:06;;;;;;;;;3.67;2.00;;;;;;;;2773505;51;9436;-75
2021/10/09 03:31:32;;;;;;;;;1.50;1.00;;;;;;;;2773410;51;9084;-74
2021/10/09 03:33:57;;;;;;;;;3.00;1.00;;;;;;;;2773335;51;8806;-74
2021/10/09 03:36:24;;;;;;;;;1.00;1.00;;;;;;;;2773555;51;8777;-75
2021/10/09 03:38:50;;;;;;;;;1.00;0.50;;;;;;;;2773840;51;8778;-75
2021/10/09 03:41:16;;;;;;;;;0.33;0.33;;;;;;;;2773512;51;8774;-75
2021/10/09 03:43:43;;;;;;;;;2.00;2.00;;;;;;;;2773621;51;12047;-76
2021/10/09 03:46:27;;;;;;;;;1.00;1.00;;;;;;;;2773310;51;8786;-75
2021/10/09 03:54:03;;;;;;;;;1.00;1.00;;;;;;;;2773081;51;9551;-75
2021/10/09 03:56:29;;;;;;;;;1.00;1.00;;;;;;;;2773257;51;8762;-73
2021/10/09 03:58:55;;;;;;;;;0.75;0.75;;;;;;;;2773223;51;8771;-72
2021/10/09 04:01:21;;;;;;;;;1.00;1.00;;;;;;;;2773180;51;8892;-74
2021/10/09 04:03:46;;;;;;;;;3.00;1.00;;;;;;;;2773385;51;8775;-74
2021/10/09 04:06:12;;;;;;;;;2.00;1.00;;;;;;;;2778169;51;8852;-74
2021/10/09 04:08:38;;;;;;;;;2.00;1.00;;;;;;;;2773624;51;8798;-74
2021/10/09 04:11:04;;;;;;;;;0.33;0.00;;;;;;;;2773044;51;10302;-74
2021/10/09 04:13:30;;;;;;;;;1.00;1.00;;;;;;;;2773535;51;11347;-76
2021/10/09 04:15:55;;;;;;;;;1.67;0.33;;;;;;;;2773339;51;8884;-74
2021/10/09 04:18:21;;;;;;;;;0.33;0.33;;;;;;;;2773248;51;8868;-75
2021/10/09 04:20:47;;;;;;;;;1.67;1.00;;;;;;;;2773291;51;8806;-74
2021/10/09 04:23:13;;;;;;;;;0.00;0.00;;;;;;;;2773413;51;12070;-75
2021/10/09 04:25:38;;;;;;;;;1.00;1.00;;;;;;;;2773156;51;8771;-75
2021/10/09 04:28:04;;;;;;;;;0.00;0.00;;;;;;;;2777719;51;8779;-75
2021/10/09 04:30:30;;;;;;;;;4.33;0.67;;;;;;;;2777392;51;11422;-75
2021/10/09 04:32:57;;;;;;;;;0.75;0.75;;;;;;;;2773397;51;8766;-75
2021/10/09 04:35:23;;;;;;;;;0.00;0.00;;;;;;;;2773011;51;8790;-75
2021/10/09 04:37:49;;;;;;;;;2.00;2.00;;;;;;;;2772994;51;8783;-75
2021/10/09 04:40:15;;;;;;;;;1.00;1.00;;;;;;;;2777513;51;11436;-75
2021/10/09 04:42:40;;;;;;;;;2.67;1.67;;;;;;;;2773320;51;10448;-74
2021/10/09 04:45:06;;;;;;;;;0.00;0.00;;;;;;;;2773090;51;11927;-75
2021/10/09 04:47:33;;;;;;;;;1.50;0.00;;;;;;;;2773123;51;8762;-74
2021/10/09 04:49:59;;;;;;;;;0.25;0.25;;;;;;;;2772788;51;8917;-74
2021/10/09 04:52:25;;;;;;;;;1.00;1.00;;;;;;;;2772950;51;8885;-76
2021/10/09 04:54:51;;;;;;;;;0.00;0.00;;;;;;;;2772791;51;8810;-75
2021/10/09 04:57:17;;;;;;;;;1.00;1.00;;;;;;;;2773007;51;10154;-75
2021/10/09 04:59:42;;;;;;;;;1.00;1.00;;;;;;;;2773212;51;8778;-75
2021/10/09 05:02:08;;;;;;;;;2.00;1.00;;;;;;;;2773046;51;8805;-76
2021/10/09 05:04:34;;;;;;;;;0.00;0.00;;;;;;;;2773592;51;11417;-74
2021/10/09 05:07:00;;;;;;;;;1.33;0.33;;;;;;;;2773790;51;8762;-76
2021/10/09 05:09:26;;;;;;;;;1.00;0.00;;;;;;;;2773688;51;11406;-79
2021/10/09 05:11:52;;;;;;;;;0.33;0.33;;;;;;;;2774299;51;9432;-76
2021/10/09 05:14:18;;;;;;;;;0.00;0.00;;;;;;;;2774001;51;9408;-75
2021/10/09 05:16:44;;;;;;;;;0.75;0.00;;;;;;;;2774145;51;9394;-77
2021/10/09 05:19:09;;;;;;;;;1.00;1.00;;;;;;;;2773900;51;8823;-75
2021/10/09 05:21:35;;;;;;;;;0.00;0.00;;;;;;;;2773791;51;11360;-74
2021/10/09 05:24:01;;;;;;;;;0.00;0.00;;;;;;;;2774269;51;8767;-75
2021/10/09 05:26:27;;;;;;;;;1.33;1.33;;;;;;;;2778486;51;11438;-76
2021/10/09 05:28:54;;;;;;;;;0.50;0.50;;;;;;;;2773626;51;8844;-76
2021/10/09 05:31:29;;;;;;;;;0.75;0.75;;;;;;;;2774072;51;8786;-77
2021/10/09 05:33:55;;;;;;;;;2.00;0.00;;;;;;;;2773812;51;8848;-73
2021/10/09 05:36:21;;;;;;;;;0.25;0.25;;;;;;;;2773629;51;8755;-74
2021/10/09 05:38:48;;;;;;;;;1.00;1.00;;;;;;;;2773775;51;8778;-74
2021/10/09 05:41:14;;;;;;;;;0.75;0.00;;;;;;;;2773743;51;8770;-75
2021/10/09 05:43:40;;;;;;;;;0.25;0.00;;;;;;;;2773819;51;8904;-76
2021/10/09 05:46:06;;;;;;;;;0.50;0.50;;;;;;;;2773866;51;8767;-76
2021/10/09 05:48:37;;;;;;;;;4.00;2.33;;;;;;;;2773615;51;8791;-75
2021/10/09 05:56:35;;;;;;;;;3.00;1.25;;;;;;;;2773782;51;9436;-75
2021/10/09 05:59:26;;;;;;;;;1.50;0.75;;;;;;;;2773650;51;8799;-77
2021/10/09 06:47:38;;;;;;;;;0.00;0.00;;;;;;;;2773748;51;9412;-76
2021/10/09 07:00:54;;;;;;;;;0.00;0.00;;;;;;;;2773509;51;9372;-74
2021/10/09 07:03:21;;;;;;;;;0.00;0.00;;;;;;;;2773541;51;8771;-75
2021/10/09 07:05:47;;;;;;;;;0.00;0.00;;;;;;;;2778301;51;8767;-77
2021/10/09 07:08:13;;;;;;;;;1.75;0.00;;;;;;;;2773445;51;8766;-77
2021/10/09 07:10:42;;;;;;;;;0.00;0.00;;;;;;;;2773175;51;8872;-76
2021/10/09 07:13:08;;;;;;;;;0.00;0.00;;;;;;;;2773786;51;8887;-74
2021/10/09 07:15:37;;;;;;;;;1.00;1.00;;;;;;;;2773413;51;8783;-76
2021/10/09 07:18:04;;;;;;;;;1.20;1.00;;;;;;;;2773383;51;8763;-75
2021/10/09 07:20:30;;;;;;;;;0.25;0.25;;;;;;;;2773428;51;8785;-77
2021/10/09 07:22:56;;;;;;;;;0.67;0.67;;;;;;;;2773348;51;8763;-74
2021/10/09 07:25:22;;;;;;;;;1.00;1.00;;;;;;;;2773392;51;11527;-76
2021/10/09 07:27:48;;;;;;;;;0.40;0.40;;;;;;;;2773278;51;8763;-66
2021/10/09 07:30:14;;;;;;;;;0.50;0.00;;;;;;;;2773239;51;8767;-66
2021/10/09 07:32:42;;;;;;;;;0.50;0.50;;;;;;;;2773270;51;8783;-64
2021/10/09 07:35:08;;;;;;;;;0.25;0.25;;;;;;;;2773756;51;8840;-65
2021/10/09 07:37:34;;;;;;;;;0.00;0.00;;;;;;;;2775140;51;8771;-65
2021/10/09 07:40:00;;;;;;;;;1.33;0.33;;;;;;;;2778318;51;11534;-68
2021/10/09 07:42:25;;;;;;;;;0.00;0.00;;;;;;;;2778989;51;8772;-66
2021/10/09 07:44:51;;;;;;;;;0.67;0.67;;;;;;;;2773267;51;8888;-66
2021/10/09 07:47:17;;;;;;;;;0.00;0.00;;;;;;;;2773354;51;8763;-64
2021/10/09 07:49:43;;;;;;;;;0.00;0.00;;;;;;;;2773153;51;8785;-64
2021/10/09 07:52:09;;;;;;;;;0.20;0.00;;;;;;;;2776588;51;8784;-65
2021/10/09 07:54:36;;;;;;;;;0.00;0.00;;;;;;;;2779404;51;8788;-66
2021/10/09 07:57:02;;;;;;;;;0.00;0.00;;;;;;;;2779242;51;8779;-67
2021/10/09 07:59:28;;;;;;;;;1.00;1.00;;;;;;;;2779499;51;8787;-69
2021/10/09 08:01:54;;;;;;;;;0.33;0.33;;;;;;;;2777550;51;8768;-67
2021/10/09 08:04:20;;;;;;;;;0.00;0.00;;;;;;;;2775155;51;11427;-66
2021/10/09 08:06:46;;;;;;;;;0.25;0.25;;;;;;;;2777251;51;8779;-67
2021/10/09 08:09:12;;;;;;;;;0.00;0.00;;;;;;;;2776930;51;8792;-67
2021/10/09 08:11:38;;;;;;;;;0.00;0.00;;;;;;;;2775130;51;8814;-67
2021/10/09 08:14:05;;;;;;;;;0.20;0.00;;;;;;;;2775158;51;8780;-65
2021/10/09 08:16:31;;;;;;;;;1.20;1.00;;;;;;;;2774993;51;8790;-65
2021/10/09 08:19:01;;;;;;;;;0.80;0.40;;;;;;;;2774899;51;8788;-66
2021/10/09 08:21:28;;;;;;;;;0.00;0.00;;;;;;;;2774697;51;9519;-66
2021/10/09 08:24:08;;;;;;;;;0.00;0.00;;;;;;;;2775223;51;8783;-64
2021/10/09 08:40:07;;;;;;;;;22.75;21.50;;;;;;;;2774649;51;8813;-67
2021/10/09 08:42:33;;;;;;;;;13.75;12.00;;;;;;;;2775129;51;8789;-65
2021/10/09 08:44:59;;;;;;;;;17.25;15.50;;;;;;;;2774830;51;8808;-65
2021/10/09 08:47:25;;;;;;;;;19.50;13.75;;;;;;;;2774715;51;8806;-67
2021/10/09 08:49:51;;;;;;;;;9.50;9.25;;;;;;;;2774696;51;8800;-65
2021/10/09 08:52:20;;;;;;;;;11.67;11.00;;;;;;;;2774670;51;8906;-66
2021/10/09 08:54:46;;;;;;;;;16.25;14.00;;;;;;;;2774510;51;9496;-67
2021/10/09 08:57:15;;;;;;;;;26.00;20.33;;;;;;;;2775043;51;8893;-63
2021/10/09 08:59:49;;;;;;;;;28.00;23.50;;;;;;;;2774442;51;11521;-64
2021/10/09 09:02:23;;;;;;;;;61.75;47.50;;;;;;;;2774660;51;8910;-65
2021/10/09 09:08:17;;;;;;;;;75.60;60.20;;;;;;;;2774910;51;8780;-66
2021/10/09 09:27:43;;;;;;;;;20.50;13.50;;;;;;;;2779094;51;8791;-65
2021/10/09 09:35:42;;;;;;;;;8.50;7.25;;;;;;;;2778577;51;8780;-66
2021/10/09 09:41:11;;;;;;;;;7.40;6.20;;;;;;;;2778777;51;8764;-64
2021/10/09 09:43:38;;;;;;;;;6.60;3.00;;;;;;;;2774689;51;8881;-63
2021/10/09 09:46:17;;;;;;;;;4.60;2.80;;;;;;;;2772603;51;8770;-67
2021/10/09 09:48:44;;;;;;;;;1.00;1.00;;;;;;;;2772645;51;8755;-68
2021/10/09 09:51:11;;;;;;;;;0.50;0.50;;;;;;;;2773023;51;8771;-66
2021/10/09 09:53:39;;;;;;;;;1.25;1.25;;;;;;;;2773863;51;8770;-67
2021/10/09 09:56:06;;;;;;;;;1.80;1.40;;;;;;;;2773553;51;8786;-64
2021/10/09 09:58:35;;;;;;;;;0.00;0.00;;;;;;;;2773709;51;8758;-64
2021/10/09 10:01:01;;;;;;;;;4.00;2.00;;;;;;;;2773768;51;8771;-65
2021/10/09 10:03:28;;;;;;;;;2.80;0.80;;;;;;;;2774216;51;9546;-64
2021/10/09 10:05:55;;;;;;;;;0.80;0.80;;;;;;;;2773608;51;8767;-67
2021/10/09 10:08:22;;;;;;;;;1.40;1.40;;;;;;;;2773475;51;8868;-63
2021/10/09 10:10:51;;;;;;;;;0.00;0.00;;;;;;;;2773472;51;8794;-64
2021/10/09 10:13:17;;;;;;;;;1.00;1.00;;;;;;;;2773659;51;8770;-62
2021/10/09 10:15:44;;;;;;;;;0.60;0.00;;;;;;;;2773662;51;8802;-64
2021/10/09 10:18:12;;;;;;;;;0.00;0.00;;;;;;;;2773434;51;8771;-63
2021/10/09 10:20:46;;;;;;;;;0.00;0.00;;;;;;;;2773846;51;8782;-64
2021/10/09 10:23:30;;;;;;;;;0.00;0.00;;;;;;;;2773635;51;8759;-66
2021/10/09 10:26:16;;;;;;;;;0.00;0.00;;;;;;;;2774315;51;8778;-66
2021/10/09 10:28:42;;;;;;;;;0.00;0.00;;;;;;;;2773862;51;9421;-63
2021/10/09 10:31:07;;;;;;;;;0.00;0.00;;;;;;;;2773712;51;8766;-65
2021/10/09 10:33:41;;;;;;;;;0.75;0.75;;;;;;;;2774036;51;8856;-65
2021/10/09 10:36:08;;;;;;;;;0.40;0.40;;;;;;;;2773583;51;8782;-65
2021/10/09 10:38:36;;;;;;;;;0.00;0.00;;;;;;;;2773739;51;8767;-68
2021/10/09 10:41:06;;;;;;;;;0.00;0.00;;;;;;;;2773622;51;8767;-64
2021/10/09 10:46:16;;;;;;;;;0.00;0.00;;;;;;;;2779792;51;8780;-66
2021/10/09 10:48:42;;;;;;;;;1.00;1.00;;;;;;;;2779436;51;8804;-68
2021/10/09 10:51:15;;;;;;;;;3.00;2.00;;;;;;;;2779886;51;8772;-64
2021/10/09 10:54:05;;;;;;;;;10.00;9.75;;;;;;;;2780245;51;8772;-64
2021/10/09 10:56:31;;;;;;;;;86.40;68.80;;;;;;;;2779576;51;8776;-68
2021/10/09 10:59:16;;;;;;;;;58.25;42.00;;;;;;;;2779328;51;8780;-63
2021/10/09 11:01:42;;;;;;;;;85.60;62.80;;;;;;;;2779011;51;8988;-63
2021/10/09 11:04:08;;;;;;;;;92.00;74.40;;;;;;;;2779270;51;8786;-65
2021/10/09 11:06:34;;;;;;;;;71.75;50.25;;;;;;;;2779314;51;8768;-63
2021/10/09 11:09:00;;;;;;;;;56.25;44.00;;;;;;;;2779250;51;8771;-65
2021/10/09 11:11:33;;;;;;;;;46.67;36.67;;;;;;;;2779337;51;8806;-63
2021/10/09 11:13:59;;;;;;;;;48.75;31.75;;;;;;;;2779213;51;9413;-65
2021/10/09 11:16:29;;;;;;;;;33.00;28.25;;;;;;;;2779689;51;8764;-65
2021/10/09 11:18:55;;;;;;;;;25.75;24.00;;;;;;;;2779196;51;8880;-63
2021/10/09 11:21:21;;;;;;;;;30.75;21.50;;;;;;;;2779337;51;8779;-65
2021/10/09 11:23:52;;;;;;;;;16.50;12.25;;;;;;;;2779521;51;8841;-66
2021/10/09 11:26:18;;;;;;;;;15.75;14.25;;;;;;;;2779295;51;8772;-66
2021/10/09 11:28:45;;;;;;;;;14.00;9.50;;;;;;;;2779500;51;8768;-63
2021/10/09 11:31:21;;;;;;;;;13.25;9.00;;;;;;;;2777346;51;9813;-65
2021/10/09 11:33:46;;;;;;;;;13.00;6.50;;;;;;;;2779254;51;8875;-63
2021/10/09 11:36:12;;;;;;;;;7.33;4.00;;;;;;;;2779108;51;9526;-62
2021/10/09 11:38:38;;;;;;;;;7.67;5.33;;;;;;;;2778997;51;8802;-63
2021/10/09 11:41:12;;;;;;;;;4.00;4.00;;;;;;;;2779153;51;12222;-65
2021/10/09 11:55:18;;;;;;;;;2.00;2.00;;;;;;;;2772520;51;8785;-63
2021/10/09 11:57:44;;;;;;;;;2.75;2.00;;;;;;;;2773650;51;8785;-64
2021/10/09 12:00:28;;;;;;;;;2.50;2.50;;;;;;;;2773091;51;8784;-62
2021/10/09 12:02:59;;;;;;;;;1.00;1.00;;;;;;;;2773373;51;8769;-63
2021/10/09 12:05:32;;;;;;;;;2.00;1.50;;;;;;;;2773066;51;8773;-64
2021/10/09 12:08:26;;;;;;;;;0.50;0.50;;;;;;;;2773546;51;8876;-64
2021/10/09 12:11:10;;;;;;;;;1.75;1.75;;;;;;;;2773375;51;8785;-63
2021/10/09 12:13:55;;;;;;;;;0.00;0.00;;;;;;;;2772291;51;8950;-65
2021/10/09 12:16:30;;;;;;;;;1.00;1.00;;;;;;;;2775827;51;8778;-62
2021/10/09 12:18:56;;;;;;;;;1.00;1.00;;;;;;;;2775667;51;9509;-60
2021/10/09 12:21:24;;;;;;;;;1.25;1.25;;;;;;;;2776441;51;8778;-61
2021/10/09 12:23:50;;;;;;;;;1.00;1.00;;;;;;;;2778061;51;8778;-61
2021/10/09 12:26:16;;;;;;;;;1.75;1.75;;;;;;;;2775356;51;8757;-64
2021/10/09 12:29:01;;;;;;;;;2.00;2.00;;;;;;;;2774878;51;8804;-60
2021/10/09 12:31:31;;;;;;;;;1.00;1.00;;;;;;;;2779314;51;9440;-59
2021/10/09 12:33:57;;;;;;;;;1.75;1.75;;;;;;;;2775198;51;8789;-62
2021/10/09 12:36:40;;;;;;;;;1.00;1.00;;;;;;;;2772889;51;8893;-62
2021/10/09 12:39:22;;;;;;;;;1.00;1.00;;;;;;;;2773089;51;8785;-63
2021/10/09 12:41:48;;;;;;;;;1.00;1.00;;;;;;;;2775290;51;8775;-62
2021/10/09 12:44:14;;;;;;;;;1.50;1.00;;;;;;;;2779292;51;8766;-61
2021/10/09 12:46:40;;;;;;;;;1.80;0.80;;;;;;;;2779269;51;8777;-62
2021/10/09 12:49:06;;;;;;;;;2.00;2.00;;;;;;;;2778375;51;9749;-63
2021/10/09 12:51:31;;;;;;;;;2.25;1.25;;;;;;;;2778919;51;8770;-63
2021/10/09 12:54:03;;;;;;;;;2.75;2.25;;;;;;;;2778944;51;8778;-63
2021/10/09 12:56:29;;;;;;;;;1.00;1.00;;;;;;;;2779055;51;11426;-62
2021/10/09 12:58:55;;;;;;;;;1.67;1.67;;;;;;;;2776364;51;8816;-62
2021/10/09 13:01:21;;;;;;;;;1.50;1.50;;;;;;;;2773569;51;11499;-77
2021/10/09 13:03:47;;;;;;;;;2.00;2.00;;;;;;;;2772881;51;8781;-77
2021/10/09 13:06:13;;;;;;;;;1.50;1.50;;;;;;;;2773129;51;8785;-77
2021/10/09 13:08:39;;;;;;;;;1.50;1.50;;;;;;;;2772712;51;10743;-77
2021/10/09 13:11:04;;;;;;;;;1.00;1.00;;;;;;;;2772978;51;9572;-80
2021/10/09 13:13:30;;;;;;;;;2.33;1.33;;;;;;;;2773457;51;8781;-77
2021/10/09 13:15:56;;;;;;;;;0.50;0.50;;;;;;;;2773262;51;8937;-77
2021/10/09 13:18:22;;;;;;;;;1.25;1.25;;;;;;;;2773191;51;8897;-75
2021/10/09 13:20:47;;;;;;;;;1.67;1.67;;;;;;;;2772950;51;8884;-73
2021/10/09 13:23:13;;;;;;;;;2.00;0.75;;;;;;;;2772885;51;9254;-76
2021/10/09 13:25:40;;;;;;;;;3.50;2.25;;;;;;;;2773908;51;8777;-78
2021/10/09 13:28:06;;;;;;;;;2.00;2.00;;;;;;;;2774283;51;8789;-80
2021/10/09 13:30:32;;;;;;;;;3.00;3.00;;;;;;;;2773617;51;8777;-80
2021/10/09 13:32:58;;;;;;;;;3.50;1.25;;;;;;;;2776269;51;8770;-79
2021/10/09 13:35:24;;;;;;;;;1.67;1.67;;;;;;;;2779752;51;8827;-78
2021/10/09 13:37:56;;;;;;;;;3.67;3.00;;;;;;;;2779683;51;8790;-77
2021/10/09 13:40:22;;;;;;;;;3.00;3.00;;;;;;;;2779760;51;8867;-77
2021/10/09 13:42:48;;;;;;;;;1.33;1.33;;;;;;;;2780492;51;8779;-77
2021/10/09 13:45:14;;;;;;;;;4.75;4.75;;;;;;;;2779863;51;11429;-78
2021/10/09 13:47:40;;;;;;;;;2.50;1.50;;;;;;;;2780004;51;8859;-78
2021/10/09 13:50:06;;;;;;;;;3.00;1.75;;;;;;;;2780492;51;9404;-70
2021/10/09 13:52:32;;;;;;;;;3.75;2.25;;;;;;;;2780056;51;8774;-70
2021/10/09 13:54:58;;;;;;;;;4.00;2.25;;;;;;;;2780058;51;8790;-69
2021/10/09 13:57:24;;;;;;;;;3.00;2.33;;;;;;;;2780637;51;8775;-67
2021/10/09 13:59:50;;;;;;;;;2.00;2.00;;;;;;;;2780415;51;8778;-69
2021/10/09 14:02:16;;;;;;;;;5.33;2.33;;;;;;;;2779836;51;11439;-67
2021/10/09 14:04:42;;;;;;;;;3.50;3.50;;;;;;;;2779981;51;10559;-67
2021/10/09 14:07:08;;;;;;;;;2.33;2.33;;;;;;;;2779742;51;8798;-69
2021/10/09 14:09:33;;;;;;;;;0.67;0.67;;;;;;;;2780011;51;8766;-67
2021/10/09 14:12:00;;;;;;;;;1.00;1.00;;;;;;;;2779909;51;11568;-68
2021/10/09 14:14:27;;;;;;;;;2.00;2.00;;;;;;;;2779919;51;11493;-67
2021/10/09 14:16:53;;;;;;;;;5.25;1.75;;;;;;;;2779739;51;8777;-67
2021/10/09 14:19:19;;;;;;;;;2.75;1.75;;;;;;;;2779718;51;8790;-66
2021/10/09 14:21:45;;;;;;;;;2.33;2.33;;;;;;;;2779436;51;8827;-68
2021/10/09 14:24:11;;;;;;;;;3.67;3.00;;;;;;;;2779632;51;11384;-67
2021/10/09 14:26:36;;;;;;;;;1.67;1.00;;;;;;;;2779987;51;8863;-67
2021/10/09 14:29:02;;;;;;;;;1.67;1.00;;;;;;;;2779423;51;11383;-66
2021/10/09 14:31:29;;;;;;;;;1.00;1.00;;;;;;;;2779818;51;9465;-67
2021/10/09 14:33:54;;;;;;;;;3.00;1.00;;;;;;;;2774896;51;8867;-66
2021/10/09 14:36:20;;;;;;;;;3.00;1.00;;;;;;;;2773111;51;8793;-67
2021/10/09 14:38:46;;;;;;;;;0.33;0.33;;;;;;;;2773593;51;11447;-67
2021/10/09 14:41:13;;;;;;;;;2.67;2.00;;;;;;;;2773436;51;9406;-68
2021/10/09 14:43:39;;;;;;;;;2.25;1.75;;;;;;;;2773278;51;12125;-66
2021/10/09 14:48:47;;;;;;;;;1.00;1.00;;;;;;;;2773456;51;8788;-68
2021/10/09 14:51:22;;;;;;;;;2.25;2.25;;;;;;;;2773514;51;9414;-69
2021/10/09 15:02:15;;;;;;;;;2.75;2.00;;;;;;;;2773418;51;8758;-68
2021/10/09 15:18:36;;;;;;;;;1.00;1.00;;;;;;;;2775262;51;8777;-69
2021/10/09 15:21:02;;;;;;;;;1.33;1.33;;;;;;;;2774964;51;8908;-67
2021/10/09 15:23:29;;;;;;;;;1.00;1.00;;;;;;;;2775230;51;8851;-67
2021/10/09 15:25:54;;;;;;;;;1.25;0.75;;;;;;;;2775172;51;8785;-68
2021/10/09 15:28:20;;;;;;;;;1.33;1.33;;;;;;;;2775189;51;8886;-66
2021/10/09 15:30:46;;;;;;;;;1.00;1.00;;;;;;;;2775030;51;8767;-69
2021/10/09 15:33:13;;;;;;;;;1.50;1.50;;;;;;;;2774917;51;8884;-67
2021/10/09 15:35:39;;;;;;;;;4.50;2.75;;;;;;;;2774326;51;8789;-65
2021/10/09 15:38:05;;;;;;;;;1.75;1.75;;;;;;;;2774789;51;8773;-68
2021/10/09 15:40:31;;;;;;;;;2.25;2.00;;;;;;;;2774878;51;8806;-66
2021/10/09 15:42:57;;;;;;;;;1.75;1.50;;;;;;;;2774305;51;8899;-66
2021/10/09 15:45:24;;;;;;;;;3.00;2.00;;;;;;;;2774674;51;8767;-66
2021/10/09 15:47:53;;;;;;;;;1.00;1.00;;;;;;;;2774405;51;8941;-65
2021/10/09 15:50:19;;;;;;;;;2.50;1.25;;;;;;;;2775017;51;9439;-66
2021/10/09 15:52:46;;;;;;;;;6.25;5.00;;;;;;;;2774988;51;8815;-66
2021/10/09 15:55:12;;;;;;;;;1.00;1.00;;;;;;;;2774816;51;8806;-69
2021/10/09 15:57:38;;;;;;;;;2.00;1.50;;;;;;;;2774712;51;8881;-66
2021/10/09 16:00:05;;;;;;;;;2.00;1.00;;;;;;;;2775099;51;8797;-66
2021/10/09 16:02:31;;;;;;;;;2.25;1.75;;;;;;;;2775187;51;9263;-67
2021/10/09 16:04:58;;;;;;;;;1.33;1.33;;;;;;;;2774786;51;8798;-69
2021/10/09 16:07:24;;;;;;;;;2.25;2.00;;;;;;;;2774799;51;11390;-65
2021/10/09 16:09:49;;;;;;;;;2.33;2.33;;;;;;;;2774008;51;8814;-66
2021/10/09 16:12:15;;;;;;;;;1.33;1.33;;;;;;;;2774909;51;11476;-65
2021/10/09 16:14:41;;;;;;;;;1.50;1.50;;;;;;;;2774982;51;11717;-65
2021/10/09 16:17:24;;;;;;;;;6.00;3.00;;;;;;;;2774766;51;8794;-66
2021/10/09 16:19:50;;;;;;;;;0.00;0.00;;;;;;;;2774683;51;8790;-65
2021/10/09 16:22:16;;;;;;;;;4.50;4.50;;;;;;;;2774881;51;8769;-66
2021/10/09 16:24:42;;;;;;;;;2.00;2.00;;;;;;;;2775179;51;8759;-65
2021/10/09 16:27:08;;;;;;;;;4.00;2.50;;;;;;;;2774702;51;8870;-66
2021/10/09 16:29:34;;;;;;;;;3.50;3.50;;;;;;;;2774854;51;8954;-65
2021/10/09 16:32:00;;;;;;;;;1.00;1.00;;;;;;;;2776665;51;8783;-66
2021/10/09 16:34:26;;;;;;;;;3.00;2.00;;;;;;;;2773099;51;11443;-65
2021/10/09 16:36:55;;;;;;;;;2.33;2.00;;;;;;;;2773081;51;8761;-66
2021/10/09 16:39:22;;;;;;;;;1.75;1.75;;;;;;;;2772493;51;8789;-65
2021/10/09 16:41:49;;;;;;;;;1.75;1.75;;;;;;;;2773363;51;8769;-65
2021/10/09 16:44:15;;;;;;;;;2.75;2.75;;;;;;;;2773156;51;8761;-65
2021/10/09 16:46:41;;;;;;;;;3.00;2.00;;;;;;;;2773015;51;8797;-66
2021/10/09 16:49:07;;;;;;;;;2.00;2.00;;;;;;;;2773038;51;9410;-65
2021/10/09 16:51:33;;;;;;;;;1.33;1.33;;;;;;;;2772920;51;11550;-68
2021/10/09 16:54:00;;;;;;;;;2.00;2.00;;;;;;;;2772979;51;9556;-70
2021/10/09 16:56:26;;;;;;;;;6.25;5.00;;;;;;;;2773027;51;8881;-65
2021/10/09 16:58:52;;;;;;;;;4.00;3.00;;;;;;;;2772868;51;8920;-66
2021/10/09 17:01:18;;;;;;;;;3.00;3.00;;;;;;;;2773269;51;8781;-65
2021/10/09 17:03:44;;;;;;;;;2.00;1.75;;;;;;;;2772924;51;9439;-64
2021/10/09 17:06:10;;;;;;;;;1.33;1.33;;;;;;;;2775870;51;8959;-61
2021/10/09 17:08:38;;;;;;;;;5.00;2.00;;;;;;;;2774545;51;10453;-63
2021/10/09 17:11:07;;;;;;;;;4.50;3.00;;;;;;;;2780225;51;8771;-61
2021/10/09 17:13:33;;;;;;;;;1.50;1.50;;;;;;;;2777610;51;8754;-62
2021/10/09 17:15:59;;;;;;;;;3.00;2.50;;;;;;;;2774152;51;9478;-79
2021/10/09 17:18:25;;;;;;;;;1.75;1.75;;;;;;;;2773338;51;8773;-82
2021/10/09 17:20:51;;;;;;;;;2.00;2.00;;;;;;;;2774130;51;8813;-78
2021/10/09 17:23:17;;;;;;;;;5.50;3.50;;;;;;;;2779351;51;9431;-78
2021/10/09 17:25:43;;;;;;;;;1.00;0.25;;;;;;;;2779766;51;8770;-78
2021/10/09 17:28:09;;;;;;;;;2.00;2.00;;;;;;;;2779994;51;9436;-82
2021/10/09 17:30:35;;;;;;;;;2.50;2.50;;;;;;;;2780116;51;11718;-78